sensor_id;sensor_type;location;lat;lon;timestamp;P1;durP1;ratioP1;P2;durP2;ratioP2
75935;SDS011;64614;32.062;34.834;2023-07-29T00:02:08;4.15;;;2.40;;
75935;SDS011;64614;32.062;34.834;2023-07-29T00:04:34;4.28;;;2.60;;
75935;SDS011;64614;32.062;34.834;2023-07-29T00:06:59;4.65;;;2.78;;
75935;SDS011;64614;32.062;34.834;2023-07-29T00:09:25;4.90;;;2.88;;
75935;SDS011;64614;32.062;34.834;2023-07-29T00:11:51;4.45;;;2.67;;
75935;SDS011;64614;32.062;34.834;2023-07-29T00:14:16;4.47;;;2.53;;
75935;SDS011;64614;32.062;34.834;2023-07-29T00:16:42;4.03;;;2.40;;
75935;SDS011;64614;32.062;34.834;2023-07-29T00:19:08;3.90;;;2.70;;
75935;SDS011;64614;32.062;34.834;2023-07-29T00:21:33;4.85;;;2.75;;
75935;SDS011;64614;32.062;34.834;2023-07-29T00:23:59;5.10;;;2.65;;
75935;SDS011;64614;32.062;34.834;2023-07-29T00:26:26;4.50;;;2.80;;
75935;SDS011;64614;32.062;34.834;2023-07-29T00:28:54;4.88;;;2.88;;
75935;SDS011;64614;32.062;34.834;2023-07-29T00:31:21;4.30;;;2.55;;
75935;SDS011;64614;32.062;34.834;2023-07-29T00:33:46;5.22;;;2.80;;
75935;SDS011;64614;32.062;34.834;2023-07-29T00:36:12;4.85;;;2.70;;
75935;SDS011;64614;32.062;34.834;2023-07-29T00:38:38;3.85;;;2.30;;
75935;SDS011;64614;32.062;34.834;2023-07-29T00:41:03;5.07;;;2.70;;
75935;SDS011;64614;32.062;34.834;2023-07-29T00:43:30;5.00;;;2.80;;
75935;SDS011;64614;32.062;34.834;2023-07-29T00:45:55;5.05;;;2.80;;
75935;SDS011;64614;32.062;34.834;2023-07-29T00:48:22;4.82;;;2.70;;
75935;SDS011;64614;32.062;34.834;2023-07-29T00:50:49;4.82;;;2.72;;
75935;SDS011;64614;32.062;34.834;2023-07-29T00:53:15;5.28;;;2.97;;
75935;SDS011;64614;32.062;34.834;2023-07-29T00:55:41;4.25;;;2.45;;
75935;SDS011;64614;32.062;34.834;2023-07-29T00:58:08;5.10;;;2.67;;
75935;SDS011;64614;32.062;34.834;2023-07-29T01:00:33;4.82;;;2.67;;
75935;SDS011;64614;32.062;34.834;2023-07-29T01:02:59;5.30;;;2.97;;
75935;SDS011;64614;32.062;34.834;2023-07-29T01:05:26;5.68;;;3.50;;
75935;SDS011;64614;32.062;34.834;2023-07-29T01:08:17;4.93;;;2.72;;
75935;SDS011;64614;32.062;34.834;2023-07-29T01:13:50;4.82;;;2.90;;
75935;SDS011;64614;32.062;34.834;2023-07-29T01:16:23;5.88;;;3.20;;
75935;SDS011;64614;32.062;34.834;2023-07-29T01:18:55;6.18;;;3.22;;
75935;SDS011;64614;32.062;34.834;2023-07-29T01:21:21;5.60;;;3.20;;
75935;SDS011;64614;32.062;34.834;2023-07-29T01:23:51;6.30;;;3.38;;
75935;SDS011;64614;32.062;34.834;2023-07-29T01:26:18;5.55;;;3.00;;
75935;SDS011;64614;32.062;34.834;2023-07-29T01:28:44;5.15;;;3.10;;
75935;SDS011;64614;32.062;34.834;2023-07-29T01:31:13;6.43;;;3.20;;
75935;SDS011;64614;32.062;34.834;2023-07-29T01:33:48;5.00;;;2.83;;
75935;SDS011;64614;32.062;34.834;2023-07-29T01:36:31;5.20;;;3.35;;
75935;SDS011;64614;32.062;34.834;2023-07-29T01:38:59;5.82;;;3.13;;
75935;SDS011;64614;32.062;34.834;2023-07-29T01:41:27;5.97;;;3.33;;
75935;SDS011;64614;32.062;34.834;2023-07-29T01:43:53;6.63;;;3.42;;
75935;SDS011;64614;32.062;34.834;2023-07-29T01:46:19;5.57;;;3.28;;
75935;SDS011;64614;32.062;34.834;2023-07-29T01:48:45;6.35;;;3.67;;
75935;SDS011;64614;32.062;34.834;2023-07-29T01:51:11;5.82;;;3.30;;
75935;SDS011;64614;32.062;34.834;2023-07-29T01:53:38;5.55;;;3.30;;
75935;SDS011;64614;32.062;34.834;2023-07-29T01:56:04;5.97;;;3.58;;
75935;SDS011;64614;32.062;34.834;2023-07-29T01:58:29;6.38;;;3.53;;
75935;SDS011;64614;32.062;34.834;2023-07-29T02:00:55;5.93;;;3.33;;
75935;SDS011;64614;32.062;34.834;2023-07-29T02:03:20;5.43;;;2.97;;
75935;SDS011;64614;32.062;34.834;2023-07-29T02:05:46;6.22;;;3.75;;
75935;SDS011;64614;32.062;34.834;2023-07-29T02:08:12;6.00;;;3.10;;
75935;SDS011;64614;32.062;34.834;2023-07-29T02:10:38;6.35;;;3.20;;
75935;SDS011;64614;32.062;34.834;2023-07-29T02:13:03;6.60;;;3.97;;
75935;SDS011;64614;32.062;34.834;2023-07-29T02:15:29;6.13;;;3.38;;
75935;SDS011;64614;32.062;34.834;2023-07-29T02:17:55;6.22;;;3.40;;
75935;SDS011;64614;32.062;34.834;2023-07-29T02:20:20;6.82;;;3.88;;
75935;SDS011;64614;32.062;34.834;2023-07-29T02:22:46;5.93;;;3.58;;
75935;SDS011;64614;32.062;34.834;2023-07-29T02:25:13;6.50;;;3.40;;
75935;SDS011;64614;32.062;34.834;2023-07-29T02:27:39;6.88;;;3.97;;
75935;SDS011;64614;32.062;34.834;2023-07-29T02:30:05;5.65;;;3.35;;
75935;SDS011;64614;32.062;34.834;2023-07-29T02:32:31;5.90;;;3.22;;
75935;SDS011;64614;32.062;34.834;2023-07-29T02:34:57;6.47;;;3.67;;
75935;SDS011;64614;32.062;34.834;2023-07-29T02:37:22;6.75;;;3.53;;
75935;SDS011;64614;32.062;34.834;2023-07-29T02:39:48;5.95;;;3.20;;
75935;SDS011;64614;32.062;34.834;2023-07-29T02:42:14;6.00;;;3.20;;
75935;SDS011;64614;32.062;34.834;2023-07-29T02:44:40;6.18;;;3.38;;
75935;SDS011;64614;32.062;34.834;2023-07-29T02:47:06;6.40;;;3.92;;
75935;SDS011;64614;32.062;34.834;2023-07-29T02:49:31;5.32;;;3.28;;
75935;SDS011;64614;32.062;34.834;2023-07-29T02:51:57;7.10;;;3.65;;
75935;SDS011;64614;32.062;34.834;2023-07-29T02:54:23;6.38;;;3.70;;
75935;SDS011;64614;32.062;34.834;2023-07-29T02:56:49;5.28;;;3.15;;
75935;SDS011;64614;32.062;34.834;2023-07-29T02:59:15;6.13;;;3.70;;
75935;SDS011;64614;32.062;34.834;2023-07-29T03:01:41;6.07;;;3.33;;
75935;SDS011;64614;32.062;34.834;2023-07-29T03:04:07;6.18;;;3.53;;
75935;SDS011;64614;32.062;34.834;2023-07-29T03:06:33;6.18;;;3.67;;
75935;SDS011;64614;32.062;34.834;2023-07-29T03:08:58;6.65;;;3.53;;
75935;SDS011;64614;32.062;34.834;2023-07-29T03:11:24;5.22;;;3.40;;
75935;SDS011;64614;32.062;34.834;2023-07-29T03:13:50;6.28;;;3.40;;
75935;SDS011;64614;32.062;34.834;2023-07-29T03:16:16;6.57;;;3.63;;
75935;SDS011;64614;32.062;34.834;2023-07-29T03:18:43;5.47;;;3.15;;
75935;SDS011;64614;32.062;34.834;2023-07-29T03:21:10;5.35;;;3.05;;
75935;SDS011;64614;32.062;34.834;2023-07-29T03:23:36;5.75;;;3.42;;
75935;SDS011;64614;32.062;34.834;2023-07-29T03:26:03;5.97;;;3.65;;
75935;SDS011;64614;32.062;34.834;2023-07-29T03:28:35;5.88;;;3.42;;
75935;SDS011;64614;32.062;34.834;2023-07-29T03:31:05;6.45;;;3.75;;
75935;SDS011;64614;32.062;34.834;2023-07-29T03:33:30;6.18;;;3.55;;
75935;SDS011;64614;32.062;34.834;2023-07-29T03:35:56;6.60;;;3.92;;
75935;SDS011;64614;32.062;34.834;2023-07-29T03:38:22;5.38;;;3.28;;
75935;SDS011;64614;32.062;34.834;2023-07-29T03:40:48;6.13;;;3.55;;
75935;SDS011;64614;32.062;34.834;2023-07-29T03:43:14;6.03;;;3.50;;
75935;SDS011;64614;32.062;34.834;2023-07-29T03:45:39;6.10;;;3.28;;
75935;SDS011;64614;32.062;34.834;2023-07-29T03:48:05;6.40;;;4.00;;
75935;SDS011;64614;32.062;34.834;2023-07-29T03:50:33;5.82;;;3.55;;
75935;SDS011;64614;32.062;34.834;2023-07-29T03:53:00;6.28;;;3.60;;
75935;SDS011;64614;32.062;34.834;2023-07-29T03:55:26;6.50;;;4.00;;
75935;SDS011;64614;32.062;34.834;2023-07-29T03:57:52;6.05;;;3.40;;
75935;SDS011;64614;32.062;34.834;2023-07-29T04:00:18;5.75;;;3.55;;
75935;SDS011;64614;32.062;34.834;2023-07-29T04:02:43;7.03;;;3.67;;
75935;SDS011;64614;32.062;34.834;2023-07-29T04:05:10;5.85;;;3.67;;
75935;SDS011;64614;32.062;34.834;2023-07-29T04:07:36;6.28;;;3.50;;
75935;SDS011;64614;32.062;34.834;2023-07-29T04:10:03;6.18;;;3.90;;
75935;SDS011;64614;32.062;34.834;2023-07-29T04:12:30;6.35;;;4.05;;
75935;SDS011;64614;32.062;34.834;2023-07-29T04:14:56;6.10;;;3.72;;
75935;SDS011;64614;32.062;34.834;2023-07-29T04:17:21;6.47;;;3.78;;
75935;SDS011;64614;32.062;34.834;2023-07-29T04:19:47;6.72;;;3.55;;
75935;SDS011;64614;32.062;34.834;2023-07-29T04:22:14;6.88;;;3.50;;
75935;SDS011;64614;32.062;34.834;2023-07-29T04:24:40;6.18;;;3.55;;
75935;SDS011;64614;32.062;34.834;2023-07-29T04:27:06;6.70;;;4.00;;
75935;SDS011;64614;32.062;34.834;2023-07-29T04:29:32;6.28;;;3.58;;
75935;SDS011;64614;32.062;34.834;2023-07-29T04:31:57;6.18;;;3.58;;
75935;SDS011;64614;32.062;34.834;2023-07-29T04:34:23;5.90;;;3.53;;
75935;SDS011;64614;32.062;34.834;2023-07-29T04:36:49;6.20;;;3.72;;
75935;SDS011;64614;32.062;34.834;2023-07-29T04:39:14;7.05;;;4.15;;
75935;SDS011;64614;32.062;34.834;2023-07-29T04:41:40;6.32;;;3.55;;
75935;SDS011;64614;32.062;34.834;2023-07-29T04:44:06;6.55;;;3.78;;
75935;SDS011;64614;32.062;34.834;2023-07-29T04:46:32;6.47;;;3.67;;
75935;SDS011;64614;32.062;34.834;2023-07-29T04:48:58;5.93;;;3.40;;
75935;SDS011;64614;32.062;34.834;2023-07-29T04:51:24;6.00;;;3.70;;
75935;SDS011;64614;32.062;34.834;2023-07-29T04:53:50;6.40;;;3.90;;
75935;SDS011;64614;32.062;34.834;2023-07-29T04:56:16;6.43;;;3.70;;
75935;SDS011;64614;32.062;34.834;2023-07-29T04:58:42;6.97;;;3.80;;
75935;SDS011;64614;32.062;34.834;2023-07-29T05:01:07;6.75;;;3.88;;
75935;SDS011;64614;32.062;34.834;2023-07-29T05:03:33;6.65;;;3.97;;
75935;SDS011;64614;32.062;34.834;2023-07-29T05:05:59;6.35;;;3.67;;
75935;SDS011;64614;32.062;34.834;2023-07-29T05:08:27;6.05;;;3.47;;
75935;SDS011;64614;32.062;34.834;2023-07-29T05:10:54;6.20;;;3.70;;
75935;SDS011;64614;32.062;34.834;2023-07-29T05:13:21;6.97;;;3.95;;
75935;SDS011;64614;32.062;34.834;2023-07-29T05:15:47;7.30;;;4.05;;
75935;SDS011;64614;32.062;34.834;2023-07-29T05:18:13;5.80;;;3.33;;
75935;SDS011;64614;32.062;34.834;2023-07-29T05:20:39;6.75;;;3.83;;
75935;SDS011;64614;32.062;34.834;2023-07-29T05:23:05;6.13;;;3.42;;
75935;SDS011;64614;32.062;34.834;2023-07-29T05:25:31;6.57;;;3.70;;
75935;SDS011;64614;32.062;34.834;2023-07-29T05:27:56;6.38;;;3.33;;
75935;SDS011;64614;32.062;34.834;2023-07-29T05:30:22;5.65;;;3.60;;
75935;SDS011;64614;32.062;34.834;2023-07-29T05:32:48;6.00;;;3.35;;
75935;SDS011;64614;32.062;34.834;2023-07-29T05:35:14;5.93;;;3.20;;
75935;SDS011;64614;32.062;34.834;2023-07-29T05:37:40;6.10;;;3.78;;
75935;SDS011;64614;32.062;34.834;2023-07-29T05:40:06;6.00;;;3.47;;
75935;SDS011;64614;32.062;34.834;2023-07-29T05:42:33;6.10;;;3.40;;
75935;SDS011;64614;32.062;34.834;2023-07-29T05:44:59;5.00;;;2.95;;
75935;SDS011;64614;32.062;34.834;2023-07-29T05:47:25;6.43;;;4.15;;
75935;SDS011;64614;32.062;34.834;2023-07-29T05:49:51;5.97;;;3.67;;
75935;SDS011;64614;32.062;34.834;2023-07-29T05:52:17;6.47;;;3.97;;
75935;SDS011;64614;32.062;34.834;2023-07-29T05:54:43;6.05;;;3.75;;
75935;SDS011;64614;32.062;34.834;2023-07-29T05:57:09;5.55;;;3.67;;
75935;SDS011;64614;32.062;34.834;2023-07-29T05:59:36;6.30;;;3.60;;
75935;SDS011;64614;32.062;34.834;2023-07-29T06:02:02;5.78;;;3.67;;
75935;SDS011;64614;32.062;34.834;2023-07-29T06:04:28;5.93;;;3.65;;
75935;SDS011;64614;32.062;34.834;2023-07-29T06:06:53;6.50;;;4.00;;
75935;SDS011;64614;32.062;34.834;2023-07-29T06:09:21;6.30;;;3.58;;
75935;SDS011;64614;32.062;34.834;2023-07-29T06:11:47;5.97;;;3.97;;
75935;SDS011;64614;32.062;34.834;2023-07-29T06:14:12;6.30;;;4.05;;
75935;SDS011;64614;32.062;34.834;2023-07-29T06:16:38;6.28;;;3.42;;
75935;SDS011;64614;32.062;34.834;2023-07-29T06:19:04;6.80;;;4.18;;
75935;SDS011;64614;32.062;34.834;2023-07-29T06:21:30;6.60;;;4.00;;
75935;SDS011;64614;32.062;34.834;2023-07-29T06:23:56;6.10;;;3.97;;
75935;SDS011;64614;32.062;34.834;2023-07-29T06:26:21;6.75;;;3.88;;
75935;SDS011;64614;32.062;34.834;2023-07-29T06:28:47;6.55;;;4.00;;
75935;SDS011;64614;32.062;34.834;2023-07-29T06:31:13;6.53;;;3.75;;
75935;SDS011;64614;32.062;34.834;2023-07-29T06:33:39;6.22;;;3.72;;
75935;SDS011;64614;32.062;34.834;2023-07-29T06:36:04;6.50;;;3.90;;
75935;SDS011;64614;32.062;34.834;2023-07-29T06:38:30;5.88;;;3.40;;
75935;SDS011;64614;32.062;34.834;2023-07-29T06:40:56;7.38;;;4.10;;
75935;SDS011;64614;32.062;34.834;2023-07-29T06:43:22;6.18;;;4.05;;
75935;SDS011;64614;32.062;34.834;2023-07-29T06:45:47;6.57;;;4.05;;
75935;SDS011;64614;32.062;34.834;2023-07-29T06:48:13;6.60;;;3.53;;
75935;SDS011;64614;32.062;34.834;2023-07-29T06:50:39;5.93;;;3.40;;
75935;SDS011;64614;32.062;34.834;2023-07-29T06:53:05;6.72;;;4.03;;
75935;SDS011;64614;32.062;34.834;2023-07-29T06:55:31;5.82;;;3.70;;
75935;SDS011;64614;32.062;34.834;2023-07-29T06:57:56;6.93;;;3.97;;
75935;SDS011;64614;32.062;34.834;2023-07-29T07:00:22;6.25;;;3.80;;
75935;SDS011;64614;32.062;34.834;2023-07-29T07:02:48;6.53;;;4.03;;
75935;SDS011;64614;32.062;34.834;2023-07-29T07:05:14;6.47;;;4.10;;
75935;SDS011;64614;32.062;34.834;2023-07-29T07:07:39;7.35;;;4.43;;
75935;SDS011;64614;32.062;34.834;2023-07-29T07:10:05;6.47;;;4.10;;
75935;SDS011;64614;32.062;34.834;2023-07-29T07:12:31;6.78;;;4.05;;
75935;SDS011;64614;32.062;34.834;2023-07-29T07:14:57;5.97;;;3.70;;
75935;SDS011;64614;32.062;34.834;2023-07-29T07:17:22;6.65;;;4.20;;
75935;SDS011;64614;32.062;34.834;2023-07-29T07:19:49;6.47;;;3.70;;
75935;SDS011;64614;32.062;34.834;2023-07-29T07:22:15;5.97;;;3.95;;
75935;SDS011;64614;32.062;34.834;2023-07-29T07:24:41;6.78;;;4.30;;
75935;SDS011;64614;32.062;34.834;2023-07-29T07:27:07;7.40;;;4.20;;
75935;SDS011;64614;32.062;34.834;2023-07-29T07:29:32;5.88;;;4.05;;
75935;SDS011;64614;32.062;34.834;2023-07-29T07:31:58;5.75;;;3.80;;
75935;SDS011;64614;32.062;34.834;2023-07-29T07:34:24;6.60;;;4.13;;
75935;SDS011;64614;32.062;34.834;2023-07-29T07:36:50;6.53;;;4.22;;
75935;SDS011;64614;32.062;34.834;2023-07-29T07:39:16;6.50;;;3.80;;
75935;SDS011;64614;32.062;34.834;2023-07-29T07:41:42;6.53;;;4.15;;
75935;SDS011;64614;32.062;34.834;2023-07-29T07:44:08;7.38;;;4.55;;
75935;SDS011;64614;32.062;34.834;2023-07-29T07:46:34;6.80;;;4.10;;
75935;SDS011;64614;32.062;34.834;2023-07-29T07:48:59;6.85;;;4.13;;
75935;SDS011;64614;32.062;34.834;2023-07-29T07:51:25;6.55;;;4.07;;
75935;SDS011;64614;32.062;34.834;2023-07-29T07:53:51;8.05;;;4.20;;
75935;SDS011;64614;32.062;34.834;2023-07-29T07:56:16;7.63;;;4.38;;
75935;SDS011;64614;32.062;34.834;2023-07-29T07:58:42;7.13;;;4.53;;
75935;SDS011;64614;32.062;34.834;2023-07-29T08:01:08;7.75;;;4.53;;
75935;SDS011;64614;32.062;34.834;2023-07-29T08:03:34;6.32;;;3.83;;
75935;SDS011;64614;32.062;34.834;2023-07-29T08:06:01;6.95;;;4.32;;
75935;SDS011;64614;32.062;34.834;2023-07-29T08:08:28;6.65;;;4.50;;
75935;SDS011;64614;32.062;34.834;2023-07-29T08:10:54;6.93;;;4.47;;
75935;SDS011;64614;32.062;34.834;2023-07-29T08:13:21;6.57;;;4.15;;
75935;SDS011;64614;32.062;34.834;2023-07-29T08:15:48;6.53;;;4.10;;
75935;SDS011;64614;32.062;34.834;2023-07-29T08:18:14;6.78;;;4.35;;
75935;SDS011;64614;32.062;34.834;2023-07-29T08:20:41;7.28;;;4.38;;
75935;SDS011;64614;32.062;34.834;2023-07-29T08:23:07;6.93;;;4.72;;
75935;SDS011;64614;32.062;34.834;2023-07-29T08:25:32;6.38;;;4.45;;
75935;SDS011;64614;32.062;34.834;2023-07-29T08:27:58;6.82;;;4.13;;
75935;SDS011;64614;32.062;34.834;2023-07-29T08:30:24;6.75;;;3.97;;
75935;SDS011;64614;32.062;34.834;2023-07-29T08:32:49;7.97;;;4.50;;
75935;SDS011;64614;32.062;34.834;2023-07-29T08:35:15;7.15;;;4.45;;
75935;SDS011;64614;32.062;34.834;2023-07-29T08:37:41;7.22;;;4.50;;
75935;SDS011;64614;32.062;34.834;2023-07-29T08:40:06;7.30;;;4.93;;
75935;SDS011;64614;32.062;34.834;2023-07-29T08:42:33;6.25;;;4.43;;
75935;SDS011;64614;32.062;34.834;2023-07-29T08:45:06;6.68;;;4.68;;
75935;SDS011;64614;32.062;34.834;2023-07-29T08:47:36;6.72;;;4.53;;
75935;SDS011;64614;32.062;34.834;2023-07-29T08:50:02;7.47;;;4.90;;
75935;SDS011;64614;32.062;34.834;2023-07-29T08:52:29;7.60;;;4.90;;
75935;SDS011;64614;32.062;34.834;2023-07-29T08:54:57;7.25;;;4.55;;
75935;SDS011;64614;32.062;34.834;2023-07-29T08:57:23;6.68;;;4.57;;
75935;SDS011;64614;32.062;34.834;2023-07-29T08:59:49;7.68;;;4.65;;
75935;SDS011;64614;32.062;34.834;2023-07-29T09:02:15;6.90;;;4.55;;
75935;SDS011;64614;32.062;34.834;2023-07-29T09:04:41;6.88;;;4.68;;
75935;SDS011;64614;32.062;34.834;2023-07-29T09:07:07;6.97;;;4.47;;
75935;SDS011;64614;32.062;34.834;2023-07-29T09:09:34;7.32;;;4.88;;
75935;SDS011;64614;32.062;34.834;2023-07-29T09:12:00;8.45;;;5.25;;
75935;SDS011;64614;32.062;34.834;2023-07-29T09:14:26;7.32;;;4.57;;
75935;SDS011;64614;32.062;34.834;2023-07-29T09:16:52;7.22;;;4.80;;
75935;SDS011;64614;32.062;34.834;2023-07-29T09:19:18;7.05;;;4.70;;
75935;SDS011;64614;32.062;34.834;2023-07-29T09:21:45;7.45;;;4.88;;
75935;SDS011;64614;32.062;34.834;2023-07-29T09:24:15;8.30;;;4.43;;
75935;SDS011;64614;32.062;34.834;2023-07-29T09:26:41;7.18;;;4.28;;
75935;SDS011;64614;32.062;34.834;2023-07-29T09:29:15;6.50;;;4.50;;
75935;SDS011;64614;32.062;34.834;2023-07-29T09:31:46;7.97;;;5.10;;
75935;SDS011;64614;32.062;34.834;2023-07-29T09:34:12;7.28;;;4.57;;
75935;SDS011;64614;32.062;34.834;2023-07-29T09:36:42;7.22;;;4.45;;
75935;SDS011;64614;32.062;34.834;2023-07-29T09:39:11;7.30;;;4.75;;
75935;SDS011;64614;32.062;34.834;2023-07-29T09:41:40;8.82;;;4.88;;
75935;SDS011;64614;32.062;34.834;2023-07-29T09:44:12;6.53;;;4.43;;
75935;SDS011;64614;32.062;34.834;2023-07-29T09:46:37;7.72;;;4.93;;
75935;SDS011;64614;32.062;34.834;2023-07-29T09:49:04;7.38;;;4.47;;
75935;SDS011;64614;32.062;34.834;2023-07-29T09:51:31;7.05;;;4.75;;
75935;SDS011;64614;32.062;34.834;2023-07-29T09:53:56;7.90;;;4.80;;
75935;SDS011;64614;32.062;34.834;2023-07-29T09:56:27;7.95;;;5.18;;
75935;SDS011;64614;32.062;34.834;2023-07-29T09:58:53;8.23;;;5.00;;
75935;SDS011;64614;32.062;34.834;2023-07-29T10:01:21;7.63;;;4.95;;
75935;SDS011;64614;32.062;34.834;2023-07-29T10:03:46;7.15;;;4.47;;
75935;SDS011;64614;32.062;34.834;2023-07-29T10:06:14;7.65;;;4.95;;
75935;SDS011;64614;32.062;34.834;2023-07-29T10:08:39;7.32;;;4.47;;
75935;SDS011;64614;32.062;34.834;2023-07-29T10:11:09;7.13;;;4.53;;
75935;SDS011;64614;32.062;34.834;2023-07-29T10:13:36;6.70;;;4.72;;
75935;SDS011;64614;32.062;34.834;2023-07-29T10:16:03;7.80;;;4.60;;
75935;SDS011;64614;32.062;34.834;2023-07-29T10:18:30;7.22;;;4.72;;
75935;SDS011;64614;32.062;34.834;2023-07-29T10:20:57;8.23;;;4.30;;
75935;SDS011;64614;32.062;34.834;2023-07-29T10:23:24;7.07;;;4.32;;
75935;SDS011;64614;32.062;34.834;2023-07-29T10:25:55;6.85;;;4.65;;
75935;SDS011;64614;32.062;34.834;2023-07-29T10:28:34;7.63;;;4.60;;
75935;SDS011;64614;32.062;34.834;2023-07-29T10:31:05;6.68;;;4.00;;
75935;SDS011;64614;32.062;34.834;2023-07-29T10:33:31;6.47;;;3.97;;
75935;SDS011;64614;32.062;34.834;2023-07-29T10:35:59;7.78;;;4.35;;
75935;SDS011;64614;32.062;34.834;2023-07-29T10:38:25;6.97;;;4.22;;
75935;SDS011;64614;32.062;34.834;2023-07-29T10:40:52;6.95;;;4.43;;
75935;SDS011;64614;32.062;34.834;2023-07-29T10:43:25;8.07;;;3.97;;
75935;SDS011;64614;32.062;34.834;2023-07-29T10:45:52;6.95;;;4.00;;
75935;SDS011;64614;32.062;34.834;2023-07-29T10:53:46;6.72;;;4.43;;
75935;SDS011;64614;32.062;34.834;2023-07-29T10:56:12;6.68;;;4.30;;
75935;SDS011;64614;32.062;34.834;2023-07-29T10:58:38;8.35;;;4.45;;
75935;SDS011;64614;32.062;34.834;2023-07-29T11:01:12;7.10;;;4.40;;
75935;SDS011;64614;32.062;34.834;2023-07-29T11:06:06;7.18;;;4.13;;
75935;SDS011;64614;32.062;34.834;2023-07-29T11:11:01;6.68;;;4.10;;
75935;SDS011;64614;32.062;34.834;2023-07-29T11:13:34;6.43;;;4.03;;
75935;SDS011;64614;32.062;34.834;2023-07-29T11:16:01;6.90;;;4.57;;
75935;SDS011;64614;32.062;34.834;2023-07-29T11:18:28;7.55;;;3.90;;
75935;SDS011;64614;32.062;34.834;2023-07-29T11:20:56;6.72;;;4.10;;
75935;SDS011;64614;32.062;34.834;2023-07-29T11:23:30;6.60;;;3.65;;
75935;SDS011;64614;32.062;34.834;2023-07-29T11:26:01;6.20;;;4.20;;
75935;SDS011;64614;32.062;34.834;2023-07-29T11:28:28;7.03;;;4.43;;
75935;SDS011;64614;32.062;34.834;2023-07-29T11:30:54;7.55;;;4.13;;
75935;SDS011;64614;32.062;34.834;2023-07-29T11:33:21;5.35;;;3.63;;
75935;SDS011;64614;32.062;34.834;2023-07-29T11:35:48;6.47;;;4.03;;
75935;SDS011;64614;32.062;34.834;2023-07-29T11:38:15;7.53;;;3.83;;
75935;SDS011;64614;32.062;34.834;2023-07-29T11:40:42;7.00;;;3.67;;
75935;SDS011;64614;32.062;34.834;2023-07-29T11:43:07;6.13;;;3.80;;
75935;SDS011;64614;32.062;34.834;2023-07-29T11:45:33;6.97;;;4.07;;
75935;SDS011;64614;32.062;34.834;2023-07-29T11:48:00;5.82;;;3.50;;
75935;SDS011;64614;32.062;34.834;2023-07-29T11:50:26;6.57;;;3.75;;
75935;SDS011;64614;32.062;34.834;2023-07-29T11:52:52;6.80;;;3.67;;
75935;SDS011;64614;32.062;34.834;2023-07-29T11:55:19;6.22;;;3.85;;
75935;SDS011;64614;32.062;34.834;2023-07-29T11:57:45;6.43;;;3.40;;
75935;SDS011;64614;32.062;34.834;2023-07-29T12:00:16;6.38;;;3.53;;
75935;SDS011;64614;32.062;34.834;2023-07-29T12:02:43;6.90;;;4.10;;
75935;SDS011;64614;32.062;34.834;2023-07-29T12:05:10;5.70;;;3.38;;
75935;SDS011;64614;32.062;34.834;2023-07-29T12:07:38;6.18;;;3.55;;
75935;SDS011;64614;32.062;34.834;2023-07-29T12:10:05;6.32;;;3.85;;
75935;SDS011;64614;32.062;34.834;2023-07-29T12:12:31;5.38;;;3.30;;
75935;SDS011;64614;32.062;34.834;2023-07-29T12:14:57;5.70;;;3.78;;
75935;SDS011;64614;32.062;34.834;2023-07-29T12:17:23;6.43;;;3.88;;
75935;SDS011;64614;32.062;34.834;2023-07-29T12:19:48;6.47;;;3.78;;
75935;SDS011;64614;32.062;34.834;2023-07-29T12:22:17;6.55;;;3.75;;
75935;SDS011;64614;32.062;34.834;2023-07-29T12:24:44;6.43;;;3.58;;
75935;SDS011;64614;32.062;34.834;2023-07-29T12:27:10;7.40;;;3.70;;
75935;SDS011;64614;32.062;34.834;2023-07-29T12:29:41;6.80;;;4.05;;
75935;SDS011;64614;32.062;34.834;2023-07-29T12:32:08;5.97;;;3.72;;
75935;SDS011;64614;32.062;34.834;2023-07-29T12:34:35;6.20;;;3.50;;
75935;SDS011;64614;32.062;34.834;2023-07-29T12:37:03;5.63;;;3.25;;
75935;SDS011;64614;32.062;34.834;2023-07-29T12:39:31;6.35;;;3.63;;
75935;SDS011;64614;32.062;34.834;2023-07-29T12:44:29;5.80;;;3.58;;
75935;SDS011;64614;32.062;34.834;2023-07-29T12:46:56;5.60;;;3.55;;
75935;SDS011;64614;32.062;34.834;2023-07-29T12:49:22;5.22;;;3.40;;
75935;SDS011;64614;32.062;34.834;2023-07-29T12:51:48;5.72;;;3.60;;
75935;SDS011;64614;32.062;34.834;2023-07-29T12:54:14;6.18;;;4.05;;
75935;SDS011;64614;32.062;34.834;2023-07-29T12:56:39;5.22;;;3.20;;
75935;SDS011;64614;32.062;34.834;2023-07-29T12:59:05;5.65;;;3.58;;
75935;SDS011;64614;32.062;34.834;2023-07-29T13:01:31;6.35;;;3.47;;
75935;SDS011;64614;32.062;34.834;2023-07-29T13:03:57;5.30;;;3.10;;
75935;SDS011;64614;32.062;34.834;2023-07-29T13:06:22;7.00;;;3.60;;
75935;SDS011;64614;32.062;34.834;2023-07-29T13:08:48;6.53;;;3.40;;
75935;SDS011;64614;32.062;34.834;2023-07-29T13:11:14;5.80;;;3.55;;
75935;SDS011;64614;32.062;34.834;2023-07-29T13:13:40;5.70;;;3.53;;
75935;SDS011;64614;32.062;34.834;2023-07-29T13:16:06;6.25;;;3.40;;
75935;SDS011;64614;32.062;34.834;2023-07-29T13:18:32;5.95;;;3.65;;
75935;SDS011;64614;32.062;34.834;2023-07-29T13:20:58;5.90;;;4.00;;
75935;SDS011;64614;32.062;34.834;2023-07-29T13:23:25;5.57;;;3.92;;
75935;SDS011;64614;32.062;34.834;2023-07-29T13:25:51;5.05;;;3.30;;
75935;SDS011;64614;32.062;34.834;2023-07-29T13:28:18;4.70;;;3.17;;
75935;SDS011;64614;32.062;34.834;2023-07-29T13:30:44;5.55;;;3.20;;
75935;SDS011;64614;32.062;34.834;2023-07-29T13:33:10;5.85;;;3.80;;
75935;SDS011;64614;32.062;34.834;2023-07-29T13:35:36;5.78;;;3.10;;
75935;SDS011;64614;32.062;34.834;2023-07-29T13:38:01;5.82;;;3.58;;
75935;SDS011;64614;32.062;34.834;2023-07-29T13:40:27;5.72;;;3.20;;
75935;SDS011;64614;32.062;34.834;2023-07-29T13:42:53;6.47;;;3.55;;
75935;SDS011;64614;32.062;34.834;2023-07-29T13:45:20;5.32;;;3.35;;
75935;SDS011;64614;32.062;34.834;2023-07-29T13:47:46;5.20;;;3.17;;
75935;SDS011;64614;32.062;34.834;2023-07-29T13:50:11;5.60;;;3.38;;
75935;SDS011;64614;32.062;34.834;2023-07-29T13:52:37;5.50;;;3.42;;
75935;SDS011;64614;32.062;34.834;2023-07-29T13:55:04;6.43;;;3.50;;
75935;SDS011;64614;32.062;34.834;2023-07-29T13:57:30;6.00;;;3.13;;
75935;SDS011;64614;32.062;34.834;2023-07-29T13:59:56;6.05;;;3.70;;
75935;SDS011;64614;32.062;34.834;2023-07-29T14:02:22;5.70;;;3.40;;
75935;SDS011;64614;32.062;34.834;2023-07-29T14:04:48;5.28;;;3.50;;
75935;SDS011;64614;32.062;34.834;2023-07-29T14:07:13;5.30;;;3.25;;
75935;SDS011;64614;32.062;34.834;2023-07-29T14:09:39;5.25;;;3.38;;
75935;SDS011;64614;32.062;34.834;2023-07-29T14:12:06;6.13;;;3.70;;
75935;SDS011;64614;32.062;34.834;2023-07-29T14:14:31;5.70;;;3.72;;
75935;SDS011;64614;32.062;34.834;2023-07-29T14:16:57;6.20;;;3.80;;
75935;SDS011;64614;32.062;34.834;2023-07-29T14:19:23;5.78;;;3.60;;
75935;SDS011;64614;32.062;34.834;2023-07-29T14:21:49;6.72;;;3.40;;
75935;SDS011;64614;32.062;34.834;2023-07-29T14:24:15;5.97;;;3.30;;
75935;SDS011;64614;32.062;34.834;2023-07-29T14:26:41;5.53;;;3.50;;
75935;SDS011;64614;32.062;34.834;2023-07-29T14:29:07;5.43;;;3.08;;
75935;SDS011;64614;32.062;34.834;2023-07-29T14:31:33;6.03;;;3.50;;
75935;SDS011;64614;32.062;34.834;2023-07-29T14:33:58;6.25;;;3.53;;
75935;SDS011;64614;32.062;34.834;2023-07-29T14:36:26;5.57;;;3.20;;
75935;SDS011;64614;32.062;34.834;2023-07-29T14:38:51;5.00;;;3.22;;
75935;SDS011;64614;32.062;34.834;2023-07-29T14:41:17;5.78;;;3.30;;
75935;SDS011;64614;32.062;34.834;2023-07-29T14:43:43;5.22;;;3.30;;
75935;SDS011;64614;32.062;34.834;2023-07-29T14:46:09;5.82;;;3.40;;